Time;durP1;ratioP1;P1;durP2;ratioP2;P2;SDS_P1;SDS_P2;PMS_P1;PMS_P2;Temp;Humidity;BMP_temperature;BMP_pressure;BME280_temperature;BME280_humidity;BME280_pressure;Samples;Min_cycle;Max_cycle;Signal;HPM_P1;HPM_P2
2021/03/24 00:01:35;;;;;;;5.03;2.40;;;;;;;23.77;36.91;100000.37;4470832;32;33148;-48
2021/03/24 00:04:03;;;;;;;10.63;3.28;;;;;;;23.74;36.89;100000.88;4483726;32;33749;-51
2021/03/24 00:06:31;;;;;;;9.80;2.83;;;;;;;23.73;36.95;100003.78;4483785;32;33588;-49
2021/03/24 00:09:00;;;;;;;9.45;2.72;;;;;;;23.71;36.94;100000.47;4483179;32;34575;-49
2021/03/24 00:11:27;;;;;;;7.43;2.60;;;;;;;23.71;36.97;99995.00;4483583;32;33301;-52
2021/03/24 00:13:54;;;;;;;11.10;3.10;;;;;;;23.70;36.98;99993.34;4483831;32;34380;-48
2021/03/24 00:16:21;;;;;;;9.52;3.00;;;;;;;23.69;37.00;99995.25;4483568;32;34534;-49
2021/03/24 00:18:49;;;;;;;10.27;2.72;;;;;;;23.68;37.07;99999.84;4483506;32;33566;-53
2021/03/24 00:21:16;;;;;;;11.00;2.70;;;;;;;23.68;37.10;100001.72;4483447;32;33980;-51
2021/03/24 00:23:43;;;;;;;7.22;2.58;;;;;;;23.66;37.08;99999.25;4483334;32;33519;-49
2021/03/24 00:26:10;;;;;;;9.88;2.92;;;;;;;23.64;37.09;99993.19;4483138;32;33702;-53
2021/03/24 00:28:37;;;;;;;10.88;2.90;;;;;;;23.65;37.08;99999.47;4483400;32;33852;-49
2021/03/24 00:31:04;;;;;;;7.00;2.83;;;;;;;23.64;37.09;100000.50;4483353;32;34227;-51
2021/03/24 00:33:32;;;;;;;6.80;2.25;;;;;;;23.63;37.13;100009.72;4483137;32;33856;-53
2021/03/24 00:35:59;;;;;;;7.82;2.30;;;;;;;23.61;37.11;100007.22;4483116;32;33774;-52
2021/03/24 00:38:26;;;;;;;7.22;2.50;;;;;;;23.61;37.13;100003.66;4483218;32;33786;-53
2021/03/24 00:40:56;;;;;;;8.65;2.78;;;;;;;23.60;37.17;100002.84;4483395;32;33282;-51
2021/03/24 00:43:23;;;;;;;9.32;3.03;;;;;;;23.58;37.25;100007.66;4482720;32;33773;-52
2021/03/24 00:45:50;;;;;;;6.55;2.50;;;;;;;23.58;37.25;99996.75;4482966;32;33811;-46
2021/03/24 00:48:28;;;;;;;8.45;2.53;;;;;;;23.57;37.28;99988.81;4483017;32;33890;-49
2021/03/24 00:50:56;;;;;;;12.85;2.80;;;;;;;23.56;37.26;99979.81;4482865;32;33972;-49
2021/03/24 00:53:23;;;;;;;6.70;2.62;;;;;;;23.56;37.26;99987.16;4483312;32;33692;-47
2021/03/24 00:55:51;;;;;;;8.93;2.85;;;;;;;23.53;37.21;99991.16;4482998;32;33535;-50
2021/03/24 00:58:18;;;;;;;7.37;2.80;;;;;;;23.53;37.28;99993.87;4482633;32;33928;-50
2021/03/24 01:00:47;;;;;;;10.15;2.78;;;;;;;23.52;37.27;100003.09;4483015;32;33590;-51
2021/03/24 01:03:14;;;;;;;6.68;2.65;;;;;;;23.49;37.30;99998.09;4483023;32;33722;-46
2021/03/24 01:05:46;;;;;;;10.20;2.72;;;;;;;23.49;37.28;99995.38;4482644;32;33869;-52
2021/03/24 01:08:17;;;;;;;9.75;3.22;;;;;;;23.48;37.31;99993.72;4482659;32;33831;-48
2021/03/24 01:10:44;;;;;;;7.95;2.50;;;;;;;23.48;37.31;99999.16;4485046;32;33296;-46
2021/03/24 01:13:12;;;;;;;7.75;2.85;;;;;;;23.47;37.30;100000.22;4484982;32;34745;-47
2021/03/24 01:15:40;;;;;;;7.70;2.47;;;;;;;23.45;37.37;99999.59;4484934;32;34727;-65
2021/03/24 01:18:07;;;;;;;12.93;2.35;;;;;;;23.47;37.45;99999.38;4484746;32;34517;-54
2021/03/24 01:20:36;;;;;;;9.65;2.75;;;;;;;23.45;37.53;99996.88;4484937;32;33951;-51
2021/03/24 01:23:03;;;;;;;10.63;2.55;;;;;;;23.45;37.42;99999.59;4484753;32;33777;-47
2021/03/24 01:25:31;;;;;;;13.80;3.10;;;;;;;23.46;37.10;100006.72;4484912;32;33608;-52
2021/03/24 01:27:58;;;;;;;6.60;3.62;;;;;;;23.45;37.17;100002.31;4484844;32;33939;-48
2021/03/24 01:30:28;;;;;;;16.85;3.28;;;;;;;23.43;37.23;100002.53;4484819;32;33249;-49
2021/03/24 01:32:55;;;;;;;9.27;2.60;;;;;;;23.42;37.24;100008.22;4484872;32;34436;-47
2021/03/24 01:35:23;;;;;;;9.60;2.58;;;;;;;23.42;37.20;100009.06;4484522;32;33753;-50
2021/03/24 01:37:50;;;;;;;9.55;2.90;;;;;;;23.42;37.24;100000.06;4484675;32;33495;-48
2021/03/24 01:40:27;;;;;;;6.62;2.40;;;;;;;23.39;37.26;100000.47;4484676;32;33096;-51
2021/03/24 01:42:56;;;;;;;13.25;2.62;;;;;;;23.38;37.26;99996.94;4484770;32;34662;-49
2021/03/24 01:45:23;;;;;;;7.60;3.10;;;;;;;23.38;37.29;99996.09;4484373;32;35326;-48
2021/03/24 01:48:07;;;;;;;7.18;2.53;;;;;;;23.35;37.29;99997.38;4474901;32;33822;-47
2021/03/24 01:50:36;;;;;;;6.68;2.45;;;;;;;23.36;37.30;99993.59;4470624;32;32117;-51
2021/03/24 01:53:15;;;;;;;8.93;2.60;;;;;;;23.34;37.32;99997.59;4478077;32;33285;-48
2021/03/24 01:55:43;;;;;;;6.87;2.83;;;;;;;23.34;37.30;99994.88;4483358;32;33699;-47
2021/03/24 01:58:15;;;;;;;10.93;2.75;;;;;;;23.33;37.34;99998.66;4483176;32;33804;-48
2021/03/24 02:00:46;;;;;;;13.23;2.62;;;;;;;23.32;37.41;99988.81;4484488;32;34436;-50
2021/03/24 02:03:13;;;;;;;8.73;2.55;;;;;;;23.30;37.48;99996.38;4484597;32;34536;-46
2021/03/24 02:05:44;;;;;;;7.80;2.22;;;;;;;23.30;37.45;99990.91;4472500;32;33566;-48
2021/03/24 02:08:19;;;;;;;10.23;2.62;;;;;;;23.28;37.50;99993.03;4472297;32;33543;-49
2021/03/24 02:11:16;;;;;;;12.27;2.60;;;;;;;23.29;37.47;99989.25;4483050;32;33314;-51
2021/03/24 02:13:51;;;;;;;7.68;2.67;;;;;;;23.29;37.49;99989.25;4472845;32;33805;-48
2021/03/24 02:16:31;;;;;;;10.20;2.80;;;;;;;23.27;37.50;99992.22;4470547;32;33745;-49
2021/03/24 02:18:59;;;;;;;7.80;2.50;;;;;;;23.26;37.51;99989.69;4483098;32;34487;-50
2021/03/24 02:21:32;;;;;;;11.12;3.00;;;;;;;23.25;37.61;100002.47;4482037;32;34075;-53
2021/03/24 02:24:19;;;;;;;6.75;2.25;;;;;;;23.24;37.60;100006.25;4470396;32;34742;-47
2021/03/24 02:27:03;;;;;;;8.20;2.67;;;;;;;23.23;37.56;100004.59;4482905;32;34698;-52
2021/03/24 02:29:31;;;;;;;11.77;2.62;;;;;;;23.24;37.53;100013.59;4483095;32;33886;-49
2021/03/24 02:31:58;;;;;;;7.15;2.30;;;;;;;23.22;37.57;100015.69;4467172;32;90928;-50
2021/03/24 02:34:26;;;;;;;6.30;2.35;;;;;;;23.21;37.56;100012.12;4483415;32;34562;-47
2021/03/24 02:36:53;;;;;;;6.68;2.50;;;;;;;23.20;37.57;100015.09;4469811;32;33816;-46
2021/03/24 02:39:21;;;;;;;6.60;2.03;;;;;;;23.20;37.58;100006.91;4471919;32;34801;-52
2021/03/24 02:41:48;;;;;;;7.75;2.28;;;;;;;23.18;37.58;100007.16;4474098;32;33656;-53
2021/03/24 02:44:15;;;;;;;8.30;2.20;;;;;;;23.16;37.59;100010.06;4483250;32;34630;-51
2021/03/24 02:46:42;;;;;;;6.82;2.85;;;;;;;23.17;37.60;100010.91;4467124;32;33631;-50
2021/03/24 02:49:10;;;;;;;7.28;2.62;;;;;;;23.17;37.68;100013.63;4454473;32;34746;-53
2021/03/24 02:51:38;;;;;;;6.25;2.30;;;;;;;23.15;37.70;100021.19;4467247;32;34254;-50
2021/03/24 02:54:09;;;;;;;10.25;2.55;;;;;;;23.15;37.63;100022.00;4467154;32;33772;-50
2021/03/24 02:56:36;;;;;;;7.72;2.20;;;;;;;23.14;37.64;100016.81;4455543;32;34028;-55
2021/03/24 02:59:05;;;;;;;7.40;2.40;;;;;;;23.15;37.63;100027.47;4469502;32;34563;-53
2021/03/24 03:01:42;;;;;;;7.95;2.42;;;;;;;23.12;37.66;100030.59;4482799;32;33405;-52
2021/03/24 03:04:13;;;;;;;7.30;2.17;;;;;;;23.14;37.62;100027.69;4482910;32;33632;-52
2021/03/24 03:06:40;;;;;;;10.35;2.28;;;;;;;23.12;37.64;100022.44;4484046;32;33655;-49
2021/03/24 03:09:26;;;;;;;11.35;2.42;;;;;;;23.13;37.69;100024.13;4469817;32;34066;-48
2021/03/24 03:12:04;;;;;;;7.30;2.42;;;;;;;23.12;37.76;100019.72;4471039;32;33320;-53
2021/03/24 03:14:47;;;;;;;7.25;2.92;;;;;;;23.13;37.75;100029.56;4484055;32;34655;-47
2021/03/24 03:17:31;;;;;;;7.03;2.20;;;;;;;23.10;37.81;100037.34;4482456;32;33828;-53
2021/03/24 03:20:19;;;;;;;5.03;2.05;;;;;;;23.08;37.78;100034.84;4482950;32;33489;-51
2021/03/24 03:22:51;;;;;;;6.87;2.10;;;;;;;23.08;37.80;100040.28;4471568;32;33352;-53
2021/03/24 03:25:24;;;;;;;7.55;2.30;;;;;;;23.08;37.81;100039.44;4470054;32;33928;-50
2021/03/24 03:27:52;;;;;;;11.30;2.85;;;;;;;23.07;37.86;100043.22;4482594;32;34497;-47
2021/03/24 03:30:23;;;;;;;8.93;2.70;;;;;;;23.05;38.01;100032.56;4469970;32;34568;-50
2021/03/24 03:32:50;;;;;;;11.35;2.28;;;;;;;23.07;37.93;100037.75;4469575;32;33500;-50
2021/03/24 03:35:22;;;;;;;11.20;2.53;;;;;;;23.07;37.88;100027.72;4453872;32;33841;-51
2021/03/24 03:37:53;;;;;;;12.27;2.10;;;;;;;23.07;37.98;100033.16;4454232;32;33653;-52
2021/03/24 03:40:22;;;;;;;12.20;2.42;;;;;;;23.07;37.88;100041.31;4454260;32;34481;-53
2021/03/24 03:42:49;;;;;;;9.50;2.42;;;;;;;23.07;37.93;100037.75;4453948;32;33397;-54
2021/03/24 03:45:16;;;;;;;7.82;2.60;;;;;;;23.08;37.88;100044.88;4467024;32;33751;-54
2021/03/24 03:47:44;;;;;;;9.23;2.65;;;;;;;23.07;37.93;100046.75;4467017;32;34816;-50
2021/03/24 03:50:19;;;;;;;12.25;2.45;;;;;;;23.06;37.91;100041.53;4471845;32;34759;-53
2021/03/24 03:53:10;;;;;;;9.32;2.28;;;;;;;23.07;37.90;100048.66;4470144;32;33376;-50
2021/03/24 03:56:01;;;;;;;10.25;2.22;;;;;;;23.06;37.89;100045.09;4483710;32;33387;-52
2021/03/24 03:58:30;;;;;;;8.10;3.05;;;;;;;23.06;37.86;100047.81;4482487;32;33902;-50
2021/03/24 04:01:09;;;;;;;9.55;2.50;;;;;;;23.02;37.89;100052.03;4483729;32;34491;-53
2021/03/24 04:03:46;;;;;;;9.20;2.90;;;;;;;23.01;37.88;100055.81;4483545;32;34659;-49
2021/03/24 04:06:18;;;;;;;6.22;2.10;;;;;;;23.03;37.88;100045.53;4482462;32;33525;-49
2021/03/24 04:08:46;;;;;;;7.30;3.37;;;;;;;23.00;37.88;100050.59;4469264;32;33835;-55
2021/03/24 04:11:13;;;;;;;7.15;2.30;;;;;;;22.99;37.88;100057.94;4482502;32;34541;-50
2021/03/24 04:13:42;;;;;;;7.43;2.40;;;;;;;23.00;37.92;100056.88;4469421;32;33226;-48
2021/03/24 04:16:10;;;;;;;8.70;2.47;;;;;;;22.98;37.90;100061.69;4482092;32;34638;-52
2021/03/24 04:18:40;;;;;;;6.20;2.20;;;;;;;22.99;37.91;100060.66;4482376;32;33637;-53
2021/03/24 04:21:07;;;;;;;26.08;3.28;;;;;;;22.97;37.91;100062.72;4469454;32;33973;-52
2021/03/24 04:23:38;;;;;;;7.95;2.30;;;;;;;22.97;37.92;100065.44;4469049;32;33495;-53
2021/03/24 04:26:08;;;;;;;5.97;2.47;;;;;;;22.96;37.96;100073.84;4481970;32;33967;-49
2021/03/24 04:28:36;;;;;;;;;;;;;;;22.95;37.97;100059.41;4482270;32;34855;-51
2021/03/24 04:31:09;;;;;;;5.30;2.05;;;;;;;23.04;37.75;100063.53;4482174;32;34147;-51
2021/03/24 04:33:37;;;;;;;5.32;2.42;;;;;;;22.96;37.85;100069.22;4481824;32;34409;-50
2021/03/24 04:36:34;;;;;;;11.52;2.55;;;;;;;22.95;37.90;100067.56;4481654;32;33494;-53
2021/03/24 04:39:07;;;;;;;6.82;1.87;;;;;;;22.95;37.96;100067.56;4482597;32;33801;-50
2021/03/24 04:41:39;;;;;;;6.00;2.53;;;;;;;22.92;37.97;100062.56;4469338;32;34548;-50
2021/03/24 04:44:10;;;;;;;6.30;1.90;;;;;;;22.91;37.98;100075.31;4469728;32;34026;-54
2021/03/24 04:46:38;;;;;;;8.07;2.33;;;;;;;22.89;38.00;100074.69;4483662;32;33698;-52
2021/03/24 04:49:10;;;;;;;8.95;2.17;;;;;;;22.90;37.98;100073.66;4483846;32;34521;-49
2021/03/24 04:51:38;;;;;;;7.18;2.40;;;;;;;22.89;37.99;100065.69;4471304;32;33562;-51
2021/03/24 04:54:11;;;;;;;11.30;2.05;;;;;;;22.89;38.04;100071.13;4483683;32;33281;-49
2021/03/24 04:56:38;;;;;;;4.47;1.95;;;;;;;22.89;37.98;100082.00;4483896;32;33514;-52
2021/03/24 04:59:05;;;;;;;9.10;2.40;;;;;;;22.87;37.97;100074.06;4470744;32;34672;-50
2021/03/24 05:01:44;;;;;;;12.07;2.45;;;;;;;22.88;38.04;100085.75;4483816;32;33890;-52
2021/03/24 05:04:31;;;;;;;7.70;1.90;;;;;;;22.86;38.04;100090.59;4483830;32;34161;-56
2021/03/24 05:07:14;;;;;;;7.12;2.00;;;;;;;22.89;37.93;100090.19;4483651;32;34794;-54
2021/03/24 05:09:43;;;;;;;7.25;2.22;;;;;;;22.86;37.96;100087.87;4483711;32;33637;-52
2021/03/24 05:12:14;;;;;;;8.30;1.90;;;;;;;22.84;37.99;100087.25;4483575;32;34755;-52
2021/03/24 05:14:51;;;;;;;6.72;2.72;;;;;;;22.83;37.97;100083.69;4470887;32;33660;-52
2021/03/24 05:17:24;;;;;;;8.10;1.90;;;;;;;22.85;37.98;100089.78;4467761;32;33899;-50
2021/03/24 05:19:57;;;;;;;6.22;2.00;;;;;;;22.84;38.03;100092.69;4467964;32;33975;-51
2021/03/24 05:22:43;;;;;;;4.60;2.08;;;;;;;22.84;37.99;100103.56;4469017;32;33914;-50
2021/03/24 05:25:39;;;;;;;6.70;2.65;;;;;;;22.85;37.97;100097.09;4468216;32;33336;-49
2021/03/24 05:28:42;;;;;;;9.00;2.10;;;;;;;22.83;38.03;100110.06;4468170;32;33840;-52
2021/03/24 05:31:38;;;;;;;4.55;2.03;;;;;;;22.82;38.11;100108.41;4468280;32;33884;-55
2021/03/24 05:34:10;;;;;;;6.35;1.90;;;;;;;22.83;38.09;100115.50;4468521;32;32574;-50
2021/03/24 05:36:45;;;;;;;5.95;2.00;;;;;;;22.79;38.13;100109.66;4471029;32;33238;-49
2021/03/24 05:39:21;;;;;;;5.57;1.77;;;;;;;22.79;38.13;100100.66;4483293;32;34013;-50
2021/03/24 05:42:12;;;;;;;6.15;2.03;;;;;;;22.79;38.14;100097.94;4484730;32;33577;-52
2021/03/24 05:44:59;;;;;;;7.72;2.17;;;;;;;22.79;38.17;100104.22;4484503;32;34737;-49
2021/03/24 05:47:35;;;;;;;3.85;1.62;;;;;;;22.78;38.19;100097.09;4483309;32;33413;-54
2021/03/24 05:50:17;;;;;;;4.60;1.98;;;;;;;22.76;38.19;100092.94;4482520;32;34650;-50
2021/03/24 05:53:06;;;;;;;3.50;1.50;;;;;;;22.76;38.16;100104.66;4467667;32;34950;-57
2021/03/24 05:55:42;;;;;;;5.62;1.87;;;;;;;22.77;38.16;100097.34;4476726;32;34493;-59
2021/03/24 05:58:16;;;;;;;7.32;2.05;;;;;;;22.75;38.18;100092.09;4483460;32;33991;-57
2021/03/24 06:01:06;;;;;;;4.50;2.37;;;;;;;22.73;38.24;100094.19;4467812;32;33868;-59
2021/03/24 06:04:13;;;;;;;4.87;2.08;;;;;;;22.75;38.18;100102.97;4476266;32;34579;-47
2021/03/24 06:07:17;;;;;;;6.18;1.92;;;;;;;22.75;38.20;100102.13;4454449;32;34851;-50
2021/03/24 06:10:06;;;;;;;5.85;2.22;;;;;;;22.76;38.15;100101.09;4484377;32;33608;-48
2021/03/24 06:13:00;;;;;;;4.25;1.73;;;;;;;22.71;38.21;100107.19;4484571;32;33788;-48
2021/03/24 06:15:46;;;;;;;5.18;2.00;;;;;;;22.72;38.24;100110.75;4483384;32;34728;-50
2021/03/24 06:18:31;;;;;;;6.78;2.15;;;;;;;22.72;38.27;100111.56;4484219;32;34544;-53
2021/03/24 06:21:18;;;;;;;7.05;2.00;;;;;;;22.70;38.27;100119.09;4484360;32;33016;-53
2021/03/24 06:24:01;;;;;;;4.35;1.70;;;;;;;22.70;38.15;100121.81;4464099;32;34519;-53
2021/03/24 06:27:06;;;;;;;6.57;1.92;;;;;;;22.71;38.17;100125.37;4468583;32;34094;-48
2021/03/24 06:29:39;;;;;;;5.80;2.03;;;;;;;22.74;38.29;100128.50;4481035;32;34474;-53
2021/03/24 06:32:24;;;;;;;8.32;2.00;;;;;;;22.80;38.41;100121.38;4483322;32;32941;-53
2021/03/24 06:35:47;;;;;;;4.78;1.60;;;;;;;22.90;38.35;100127.25;4482649;32;33837;-51
2021/03/24 06:38:24;;;;;;;8.23;1.92;;;;;;;23.04;38.20;100120.69;4452045;31;33711;-52
2021/03/24 06:41:09;;;;;;;6.35;2.17;;;;;;;23.19;38.11;100138.63;4483440;32;33717;-48
2021/03/24 06:44:08;;;;;;;4.93;1.77;;;;;;;23.38;37.94;100134.97;4483019;32;33348;-52
2021/03/24 06:47:20;;;;;;;4.50;1.70;;;;;;;23.55;37.73;100144.31;4471827;32;33522;-53
2021/03/24 06:50:06;;;;;;;8.80;1.70;;;;;;;23.78;37.48;100151.09;4445379;32;33486;-54
2021/03/24 06:52:46;;;;;;;8.75;1.75;;;;;;;23.89;37.27;100153.94;4468780;32;33858;-51
2021/03/24 06:55:13;;;;;;;8.13;1.70;;;;;;;24.02;37.09;100146.72;4477963;32;33254;-49
2021/03/24 06:58:11;;;;;;;10.48;1.92;;;;;;;24.13;36.93;100157.75;4476829;32;34843;-54
2021/03/24 07:01:01;;;;;;;5.00;2.00;;;;;;;24.24;36.76;100149.88;4480894;32;33911;-52
2021/03/24 07:03:50;;;;;;;11.02;2.20;;;;;;;24.30;36.63;100149.84;4470661;32;34003;-51
2021/03/24 07:06:38;;;;;;;9.80;1.90;;;;;;;24.37;36.57;100155.25;4478425;32;33525;-48
2021/03/24 07:09:08;;;;;;;5.05;1.52;;;;;;;24.40;36.62;100152.09;4469253;32;33779;-50
2021/03/24 07:11:38;;;;;;;;;;;;;;;24.39;36.57;100150.44;4484410;32;34027;-46
2021/03/24 07:14:47;;;;;;;5.70;1.77;;;;;;;24.51;36.35;100154.06;4484081;32;34416;-54
2021/03/24 07:17:42;;;;;;;4.90;1.67;;;;;;;24.47;36.36;100152.84;4432661;31;33250;-48
2021/03/24 07:20:34;;;;;;;8.80;1.77;;;;;;;24.44;36.45;100156.03;4482263;32;33886;-53
2021/03/24 07:23:28;;;;;;;6.25;1.75;;;;;;;24.42;36.45;100156.25;4482826;32;33927;-49
2021/03/24 07:26:10;;;;;;;6.70;2.28;;;;;;;24.42;36.44;100161.69;4482721;32;34497;-48
2021/03/24 07:29:08;;;;;;;6.65;1.80;;;;;;;24.38;36.42;100156.91;4482879;32;33379;-51
2021/03/24 07:31:57;;;;;;;4.15;1.50;;;;;;;24.37;36.48;100157.97;4468804;32;33797;-53
2021/03/24 07:34:47;;;;;;;9.07;2.15;;;;;;;24.32;36.49;100158.63;4456126;32;34702;-50
2021/03/24 07:37:34;;;;;;;10.77;2.40;;;;;;;24.31;36.45;100159.69;4467083;32;33397;-54
2021/03/24 07:40:21;;;;;;;6.32;2.05;;;;;;;24.30;36.44;100165.38;4476602;32;34205;-49
2021/03/24 07:42:55;;;;;;;7.15;1.90;;;;;;;24.26;36.34;100167.69;4477029;32;33568;-51
2021/03/24 07:45:57;;;;;;;11.20;1.95;;;;;;;24.23;36.53;100167.31;4472646;32;33962;-51
2021/03/24 07:48:42;;;;;;;5.75;1.73;;;;;;;24.24;36.66;100168.97;4482570;32;33576;-52
2021/03/24 07:51:11;;;;;;;7.62;2.28;;;;;;;24.19;36.81;100173.19;4470318;32;32883;-53
2021/03/24 07:53:43;;;;;;;7.25;1.60;;;;;;;24.16;36.85;100168.22;4482748;32;33866;-49
2021/03/24 07:56:30;;;;;;;4.62;1.77;;;;;;;24.12;36.90;100169.72;4482571;32;33827;-53
2021/03/24 07:59:20;;;;;;;4.93;1.80;;;;;;;24.13;36.98;100176.00;4483388;32;34019;-47
2021/03/24 08:02:16;;;;;;;7.87;2.17;;;;;;;24.10;37.13;100182.72;4451781;31;33991;-47
2021/03/24 08:05:07;;;;;;;4.32;1.73;;;;;;;24.11;37.15;100181.66;4427605;32;33672;-49
2021/03/24 08:07:38;;;;;;;9.35;1.90;;;;;;;24.07;37.22;100187.78;4470597;32;33883;-52
2021/03/24 08:10:30;;;;;;;5.35;1.50;;;;;;;24.03;37.23;100192.00;4482327;32;33203;-52
2021/03/24 08:13:38;;;;;;;16.15;2.00;;;;;;;24.01;37.25;100178.59;4483512;32;34920;-52
2021/03/24 08:16:13;;;;;;;8.18;1.87;;;;;;;23.98;37.26;100189.94;4483340;32;33822;-49
2021/03/24 08:18:55;;;;;;;6.60;1.35;;;;;;;23.91;37.39;100184.53;4481005;32;33595;-50
2021/03/24 08:21:45;;;;;;;17.80;2.60;;;;;;;23.92;37.39;100190.81;4481921;32;34272;-54
2021/03/24 08:24:31;;;;;;;19.83;2.28;;;;;;;23.88;37.14;100186.88;4483445;32;34267;-55
2021/03/24 08:27:00;;;;;;;18.80;2.53;;;;;;;23.85;37.49;100187.31;4482045;32;34536;-56
2021/03/24 08:29:37;;;;;;;18.17;3.77;;;;;;;23.82;37.50;100196.75;4481967;32;33877;-56
2021/03/24 08:32:35;;;;;;;21.33;4.03;;;;;;;23.80;36.73;100189.84;4481917;32;33584;-53
2021/03/24 08:35:21;;;;;;;9.95;3.42;;;;;;;23.79;36.22;100197.19;4482843;32;33347;-54
2021/03/24 08:38:21;;;;;;;10.85;3.95;;;;;;;23.75;35.69;100195.12;4483086;32;35240;-52
2021/03/24 08:41:19;;;;;;;11.77;3.67;;;;;;;23.68;35.44;100198.72;4450939;31;34772;-54
2021/03/24 08:43:58;;;;;;;14.85;4.85;;;;;;;23.66;35.12;100192.66;4482065;32;33733;-55
2021/03/24 08:46:30;;;;;;;11.40;4.75;;;;;;;23.62;35.05;100190.56;4468052;32;33457;-60
2021/03/24 08:49:03;;;;;;;17.73;4.65;;;;;;;23.57;35.40;100182.22;4457874;32;34505;-60
2021/03/24 08:51:45;;;;;;;20.40;4.00;;;;;;;23.54;35.21;100186.19;4476210;32;33821;-56
2021/03/24 08:54:15;;;;;;;16.42;4.53;;;;;;;23.52;35.20;100188.31;4482850;32;35025;-55
2021/03/24 08:56:59;;;;;;;15.20;4.62;;;;;;;23.47;35.29;100188.12;4483023;32;33692;-58
2021/03/24 08:59:42;;;;;;;19.15;4.93;;;;;;;23.48;35.39;100192.53;4481457;32;33810;-58
2021/03/24 09:02:46;;;;;;;12.65;5.37;;;;;;;23.47;35.31;100187.31;4482438;32;33957;-55
2021/03/24 09:05:29;;;;;;;13.05;5.35;;;;;;;23.45;34.92;100181.22;4479737;32;33580;-56
2021/03/24 09:08:08;;;;;;;16.00;5.65;;;;;;;23.39;34.98;100181.03;4452584;32;33375;-56
2021/03/24 09:10:50;;;;;;;12.50;5.45;;;;;;;23.39;34.90;100180.22;4479423;32;33763;-55
2021/03/24 09:13:24;;;;;;;14.10;5.35;;;;;;;23.40;34.86;100179.97;4475658;32;33552;-51
2021/03/24 09:16:15;;;;;;;12.10;5.40;;;;;;;23.36;34.93;100173.31;4469276;32;33841;-61
2021/03/24 09:18:49;;;;;;;13.65;5.53;;;;;;;23.37;34.90;100166.00;4470614;32;33384;-54
2021/03/24 09:21:28;;;;;;;16.12;5.97;;;;;;;23.33;34.63;100168.31;4469311;32;33515;-57
2021/03/24 09:24:03;;;;;;;12.10;5.93;;;;;;;23.31;34.35;100170.38;4456425;32;34805;-54
2021/03/24 09:26:34;;;;;;;9.40;5.10;;;;;;;23.30;34.05;100162.44;4470153;32;33560;-55
2021/03/24 09:29:05;;;;;;;14.10;5.65;;;;;;;23.28;34.24;100168.12;4480442;32;33419;-55
2021/03/24 09:32:13;;;;;;;12.75;5.75;;;;;;;23.26;33.96;100167.47;4483583;32;33903;-56
2021/03/24 09:34:58;;;;;;;13.15;5.82;;;;;;;23.26;33.71;100170.19;4447601;32;34587;-61
2021/03/24 09:37:36;;;;;;;10.48;6.05;;;;;;;23.22;33.72;100166.25;4473942;32;33684;-56
2021/03/24 09:40:07;;;;;;;8.90;5.60;;;;;;;23.19;33.34;100169.41;4458391;32;33205;-58
2021/03/24 09:42:48;;;;;;;12.32;6.20;;;;;;;23.16;33.22;100173.38;4458022;32;33890;-59
2021/03/24 09:45:19;;;;;;;;;;;;;;;23.14;33.29;100158.34;4457598;32;32734;-59
2021/03/24 09:48:00;;;;;;;;;;;;;;;23.22;33.07;100165.41;4479194;32;34270;-59
2021/03/24 09:50:29;;;;;;;;;;;;;;;23.23;33.25;100170.66;4483782;32;34092;-58
2021/03/24 09:52:59;;;;;;;;;;;;;;;23.26;33.26;100161.19;4483762;32;33642;-56
2021/03/24 09:55:49;;;;;;;;;;;;;;;23.32;33.00;100163.09;4469337;32;34262;-53
2021/03/24 09:58:16;;;;;;;;;;;;;;;23.38;32.92;100162.19;4469137;32;34641;-56
2021/03/24 10:01:03;;;;;;;;;;;;;;;23.51;32.89;100170.31;4485118;32;33972;-49
2021/03/24 10:03:33;;;;;;;;;;;;;;;23.61;32.96;100159.75;4470697;32;33908;-57
2021/03/24 10:06:02;;;;;;;;;;;;;;;23.74;33.06;100158.06;4468120;32;34116;-56
2021/03/24 10:08:30;;;;;;;;;;;;;;;23.87;33.10;100163.38;4479143;32;34130;-56
2021/03/24 10:10:58;;;;;;;;;;;;;;;23.99;33.09;100156.19;4482487;32;33972;-51
2021/03/24 10:13:30;;;;;;;;;;;;;;;24.15;33.08;100163.81;4482798;32;34041;-53
2021/03/24 10:16:01;;;;;;;;;;;;;;;24.31;33.02;100156.13;4483333;32;34177;-54
2021/03/24 10:18:32;;;;;;;;;;;;;;;24.44;33.01;100147.84;4484750;32;34781;-55
2021/03/24 10:21:06;;;;;;;;;;;;;;;24.59;33.00;100147.50;4484757;32;33775;-55
2021/03/24 10:23:36;;;;;;;;;;;;;;;24.70;32.97;100149.47;4481879;32;34090;-56
2021/03/24 10:26:10;;;;;;;;;;;;;;;24.79;32.97;100155.44;4469090;32;34155;-56
2021/03/24 10:28:38;;;;;;;;;;;;;;;24.87;32.85;100163.34;4468656;32;34181;-59
2021/03/24 10:31:06;;;;;;;;;;;;;;;24.94;32.80;100172.28;4467573;32;33977;-52
2021/03/24 10:33:34;;;;;;;;;;;;;;;24.98;32.78;100176.22;4471252;32;34513;-59
2021/03/24 10:36:02;;;;;;;;;;;;;;;25.01;32.70;100173.06;4483862;32;34252;-51
2021/03/24 10:38:48;;;;;;;;;;;;;;;25.03;32.72;100170.91;4483359;32;33856;-54
2021/03/24 10:41:30;;;;;;;;;;;;;;;25.07;32.83;100168.56;4481673;32;34337;-55
2021/03/24 10:44:04;;;;;;;;;;;;;;;25.07;32.87;100166.69;4482552;32;33988;-51
2021/03/24 10:46:38;;;;;;;;;;;;;;;25.08;32.92;100171.09;4483123;32;34016;-55
2021/03/24 10:49:16;;;;;;;;;;;;;;;25.09;32.95;100163.75;4475585;32;34044;-51
2021/03/24 10:51:54;;;;;;;;;;;;;;;25.07;33.03;100163.97;4475783;32;32404;-58
2021/03/24 10:54:22;;;;;;;;;;;;;;;25.06;33.15;100169.63;4477292;32;34801;-57
2021/03/24 10:56:52;;;;;;;;;;;;;;;25.04;33.16;100164.41;4462879;32;34899;-57
2021/03/24 10:59:31;;;;;;;;;;;;;;;25.01;33.34;100166.75;4471556;32;35485;-56
2021/03/24 11:02:01;;;;;;;;;;;;;;;25.00;33.30;100167.81;4484491;32;33491;-53
2021/03/24 11:04:43;;;;;;;;;;;;;;;24.97;33.56;100157.34;4483177;32;34948;-54
2021/03/24 11:07:27;;;;;;;;;;;;;;;24.97;33.58;100151.91;4483032;32;35470;-54
2021/03/24 11:10:03;;;;;;;;;;;;;;;24.92;33.83;100153.41;4482929;32;34097;-53
2021/03/24 11:12:34;;;;;;;;;;;;;;;24.89;33.94;100150.28;4483165;32;33230;-54
2021/03/24 11:15:07;;;;;;;;;;;;;;;24.86;34.06;100151.59;4484195;32;34117;-53
2021/03/24 11:17:38;;;;;;;;;;;;;;;24.84;34.21;100155.59;4484549;32;33497;-54
2021/03/24 11:20:10;;;;;;;;;;;;;;;24.81;34.33;100156.91;4484360;32;34245;-51
2021/03/24 11:22:51;;;;;;;;;;;;;;;24.78;34.42;100157.34;4484516;32;33164;-55
2021/03/24 11:25:28;;;;;;;;;;;;;;;24.78;34.53;100156.53;4483065;32;34031;-54
2021/03/24 11:27:59;;;;;;;;;;;;;;;24.73;34.57;100151.75;4484255;32;34122;-56
2021/03/24 11:30:41;;;;;;;;;;;;;;;24.72;34.73;100151.97;4482887;32;34279;-54
2021/03/24 11:33:19;;;;;;;;;;;;;;;24.70;34.75;100149.47;4484250;32;34639;-55
2021/03/24 11:35:58;;;;;;;;;;;;;;;24.65;34.85;100144.69;4481226;32;34129;-57
2021/03/24 11:38:28;;;;;;;;;;;;;;;24.63;34.92;100152.28;4481145;32;33729;-56
2021/03/24 11:41:00;;;;;;;;;;;;;;;24.60;35.03;100143.69;4468181;32;34095;-52
2021/03/24 11:43:31;;;;;;;;;;;;;;;24.57;34.87;100138.69;4481843;32;33254;-55
2021/03/24 11:46:09;;;;;;;;;;;;;;;24.55;34.84;100130.72;4469816;32;34194;-51
2021/03/24 11:48:52;;;;;;;;;;;;;;;24.53;34.80;100127.41;4469255;32;34931;-51
2021/03/24 11:51:38;;;;;;;;;;;;;;;24.51;34.85;100131.41;4467146;32;33638;-54
2021/03/24 11:54:07;;;;;;;;;;;;;;;24.48;34.89;100129.13;4467263;32;34481;-54
2021/03/24 11:56:53;;;;;;;;;;;;;;;24.46;34.96;100132.09;4480439;32;33767;-52
2021/03/24 11:59:39;;;;;;;;;;;;;;;24.44;35.01;100128.75;4483974;32;34875;-53
2021/03/24 12:02:15;;;;;;;;;;;;;;;24.40;35.06;100125.66;4484009;32;34131;-51
2021/03/24 12:04:49;;;;;;;;;;;;;;;24.39;35.09;100131.34;4483835;32;33310;-51
2021/03/24 12:07:21;;;;;;;;;;;;;;;24.37;35.13;100125.25;4483846;32;34256;-52
2021/03/24 12:09:48;;;;;;;;;;;;;;;24.37;35.17;100117.06;4483619;32;35053;-54
2021/03/24 12:12:20;;;;;;;;;;;;;;;24.36;35.23;100129.00;4482658;32;34723;-57
2021/03/24 12:14:57;;;;;;;;;;;;;;;24.34;35.24;100118.34;4483788;32;32866;-51
2021/03/24 12:17:24;;;;;;;;;;;;;;;24.33;35.25;100110.38;4482296;32;34078;-49
2021/03/24 12:19:51;;;;;;;;;;;;;;;24.32;35.36;100125.06;4483901;32;34067;-56
2021/03/24 12:22:18;;;;;;;;;;;;;;;24.30;35.40;100119.00;4482439;32;34237;-55
2021/03/24 12:24:45;;;;;;;;;;;;;;;24.29;35.42;100120.88;4483766;32;32920;-54